Sure glad the air conditioner is working


#1

OEJN 241200Z 34015KT CAVOK 49/32 Q1000 NOSIG

u no who, u no where


#2

That is quite the high dew point, too!!!


#3

yup, unfortunately the humidity rises during the summer here. vewy strange,
and it’s not often that Jeddah is hotter than Riyadh during the summer. They were 40 at the same time today.